createdAt,value
2024-02-03T00:00:43.562Z,8.55
2024-02-03T00:01:43.498Z,8.48
2024-02-03T00:02:43.436Z,8.56
2024-02-03T00:03:43.592Z,8.56
2024-02-03T00:04:43.442Z,8.48
2024-02-03T00:05:43.434Z,8.58
2024-02-03T00:06:43.488Z,8.65
2024-02-03T00:07:43.403Z,8.59
2024-02-03T00:08:43.371Z,8.59
2024-02-03T00:09:43.455Z,8.59
2024-02-03T00:10:43.345Z,8.58
2024-02-03T00:11:43.343Z,8.66
2024-02-03T00:12:43.372Z,8.62
2024-02-03T00:13:43.330Z,8.66
2024-02-03T00:14:43.316Z,8.73
2024-02-03T00:15:43.367Z,8.77
2024-02-03T00:16:43.286Z,8.77
2024-02-03T00:17:43.305Z,8.77
2024-02-03T00:18:43.308Z,8.76
2024-02-03T00:19:43.475Z,8.76
2024-02-03T00:20:43.259Z,8.70
2024-02-03T00:21:43.347Z,8.79
2024-02-03T00:22:43.227Z,8.77
2024-02-03T00:23:43.229Z,8.80
2024-02-03T00:24:43.261Z,8.83
2024-02-03T00:25:43.197Z,8.80
2024-02-03T00:26:43.175Z,8.86
2024-02-03T00:27:43.214Z,8.87
2024-02-03T00:28:43.150Z,8.86
2024-02-03T00:29:43.163Z,8.86
2024-02-03T00:30:43.165Z,8.84
2024-02-03T00:31:43.121Z,8.80
2024-02-03T00:32:43.158Z,8.83
2024-02-03T00:33:43.192Z,8.89
2024-02-03T00:34:43.240Z,8.87
2024-02-03T00:35:43.102Z,8.77
2024-02-03T00:36:43.120Z,8.81
2024-02-03T00:37:43.110Z,8.76
2024-02-03T00:38:43.186Z,8.84
2024-02-03T00:39:43.146Z,8.79
2024-02-03T00:40:43.022Z,8.80
2024-02-03T00:41:43.100Z,8.83
2024-02-03T00:42:43.006Z,8.84
2024-02-03T00:43:43.003Z,8.77
2024-02-03T00:44:43.151Z,8.87
2024-02-03T00:45:43.047Z,8.84
2024-02-03T00:46:42.955Z,8.83
2024-02-03T00:47:42.944Z,8.83
2024-02-03T00:48:43.134Z,8.86
2024-02-03T00:49:43.043Z,8.87
2024-02-03T00:50:42.910Z,8.80
2024-02-03T00:51:42.981Z,8.89
2024-02-03T00:52:42.921Z,8.92
2024-02-03T00:53:43.000Z,8.95
2024-02-03T00:54:42.903Z,8.89
2024-02-03T00:55:42.948Z,8.92
2024-02-03T00:56:42.862Z,8.95
2024-02-03T00:57:42.872Z,8.95
2024-02-03T00:58:42.835Z,8.92
2024-02-03T00:59:42.819Z,8.95
2024-02-03T01:00:42.886Z,8.95
2024-02-03T01:01:42.828Z,8.94
2024-02-03T01:02:42.927Z,8.91
2024-02-03T01:03:42.825Z,8.92
2024-02-03T01:04:42.862Z,8.92
2024-02-03T01:05:42.766Z,8.95
2024-02-03T01:06:42.778Z,8.84
2024-02-03T01:07:42.761Z,8.87
2024-02-03T01:08:42.726Z,8.81
2024-02-03T01:09:42.757Z,8.89
2024-02-03T01:10:42.722Z,8.87
2024-02-03T01:11:42.679Z,8.84
2024-02-03T01:12:42.742Z,8.92
2024-02-03T01:13:42.710Z,8.96
2024-02-03T01:14:42.656Z,8.99
2024-02-03T01:15:42.667Z,8.89
2024-02-03T01:16:42.642Z,8.96
2024-02-03T01:17:42.705Z,8.87
2024-02-03T01:18:42.657Z,8.95
2024-02-03T01:19:42.705Z,8.91
2024-02-03T01:20:42.601Z,8.96
2024-02-03T01:21:42.706Z,8.92
2024-02-03T01:22:42.592Z,8.91
2024-02-03T01:23:42.566Z,8.92
2024-02-03T01:24:42.593Z,8.89
2024-02-03T01:25:42.530Z,8.91
2024-02-03T01:26:42.533Z,8.79
2024-02-03T01:27:42.541Z,8.91
2024-02-03T01:28:42.502Z,8.81
2024-02-03T01:29:42.503Z,8.77
2024-02-03T01:30:42.504Z,8.81
2024-02-03T01:31:42.478Z,8.77
2024-02-03T01:32:42.488Z,8.81
2024-02-03T01:33:42.517Z,8.81
2024-02-03T01:34:42.493Z,8.80
2024-02-03T01:35:42.458Z,8.81
2024-02-03T01:36:42.503Z,8.84
2024-02-03T01:37:42.402Z,8.83
2024-02-03T01:38:42.387Z,8.80
2024-02-03T01:39:42.429Z,8.87
2024-02-03T01:40:42.366Z,8.92
2024-02-03T01:41:42.390Z,8.98
2024-02-03T01:42:42.360Z,8.81
2024-02-03T01:43:42.333Z,8.89
2024-02-03T01:44:42.318Z,8.89
2024-02-03T01:45:42.404Z,8.84
2024-02-03T01:46:42.304Z,8.91
2024-02-03T01:47:42.343Z,8.84
2024-02-03T01:48:42.416Z,8.86
2024-02-03T01:49:42.473Z,8.84
2024-02-03T01:50:42.250Z,8.84
2024-02-03T01:51:42.330Z,8.95
2024-02-03T01:52:42.241Z,8.91
2024-02-03T01:53:42.237Z,8.89
2024-02-03T01:54:42.241Z,8.87
2024-02-03T01:55:42.214Z,8.91
2024-02-03T01:56:42.196Z,8.83
2024-02-03T01:57:42.332Z,8.81
2024-02-03T01:58:42.170Z,8.87
2024-02-03T01:59:42.250Z,8.81
2024-02-03T02:00:42.221Z,8.87
2024-02-03T02:01:42.202Z,8.81
2024-02-03T02:02:42.215Z,8.91
2024-02-03T02:03:42.192Z,8.79
2024-02-03T02:04:42.165Z,8.83
2024-02-03T02:05:42.119Z,8.79
2024-02-03T02:06:42.236Z,8.84
2024-02-03T02:07:42.069Z,8.87
2024-02-03T02:08:42.069Z,8.91
2024-02-03T02:09:42.268Z,8.91
2024-02-03T02:10:42.045Z,8.83
2024-02-03T02:11:42.043Z,8.81
2024-02-03T02:12:42.106Z,8.89
2024-02-03T02:13:42.018Z,8.91
2024-02-03T02:14:41.993Z,8.83
2024-02-03T02:15:42.031Z,8.74
2024-02-03T02:16:41.968Z,8.79
2024-02-03T02:17:41.983Z,8.81
2024-02-03T02:18:42.015Z,8.73
2024-02-03T02:19:42.036Z,8.74
2024-02-03T02:20:41.954Z,8.71
2024-02-03T02:21:41.967Z,8.76
2024-02-03T02:22:41.946Z,8.73
2024-02-03T02:23:41.927Z,8.76
2024-02-03T02:24:41.928Z,8.71
2024-02-03T02:25:41.873Z,8.63
2024-02-03T02:26:41.883Z,8.76
2024-02-03T02:27:41.926Z,8.71
2024-02-03T02:28:41.843Z,8.66
2024-02-03T02:29:41.832Z,8.71
2024-02-03T02:30:41.868Z,8.71
2024-02-03T02:31:41.803Z,8.73
2024-02-03T02:32:41.871Z,8.68
2024-02-03T02:33:41.948Z,8.56
2024-02-03T02:34:41.851Z,8.68
2024-02-03T02:35:41.757Z,8.55
2024-02-03T02:36:41.814Z,8.65
2024-02-03T02:37:41.757Z,8.53
2024-02-03T02:38:41.742Z,8.55
2024-02-03T02:39:41.766Z,8.61
2024-02-03T02:40:41.708Z,8.58
2024-02-03T02:41:41.701Z,8.71
2024-02-03T02:42:41.743Z,8.63
2024-02-03T02:43:41.702Z,8.59
2024-02-03T02:44:41.724Z,8.73
2024-02-03T02:45:41.705Z,8.73
2024-02-03T02:46:41.642Z,8.59
2024-02-03T02:47:41.643Z,8.52
2024-02-03T02:48:41.689Z,8.58
2024-02-03T02:49:41.766Z,8.56
2024-02-03T02:50:41.636Z,8.50
2024-02-03T02:51:41.626Z,8.56
2024-02-03T02:52:41.615Z,8.56
2024-02-03T02:53:41.587Z,8.59
2024-02-03T02:54:41.693Z,8.62
2024-02-03T02:55:41.550Z,8.56
2024-02-03T02:56:41.560Z,8.58
2024-02-03T02:57:41.722Z,8.59
2024-02-03T02:58:41.543Z,8.56
2024-02-03T02:59:41.543Z,8.56
2024-02-03T03:00:41.604Z,8.62
2024-02-03T03:01:41.533Z,8.66
2024-02-03T03:02:41.512Z,8.56
2024-02-03T03:03:41.558Z,8.55
2024-02-03T03:04:41.555Z,8.66
2024-02-03T03:05:41.439Z,8.59
2024-02-03T03:06:41.453Z,8.68
2024-02-03T03:07:41.426Z,8.61
2024-02-03T03:08:41.416Z,8.65
2024-02-03T03:09:41.445Z,8.68
2024-02-03T03:10:41.403Z,8.65
2024-02-03T03:11:41.378Z,8.62
2024-02-03T03:12:41.435Z,8.63
2024-02-03T03:13:41.345Z,8.71
2024-02-03T03:14:41.365Z,8.71
2024-02-03T03:15:41.415Z,8.76
2024-02-03T03:16:41.320Z,8.83
2024-02-03T03:17:41.381Z,8.77
2024-02-03T03:18:41.520Z,8.71
2024-02-03T03:19:41.418Z,8.74
2024-02-03T03:20:41.282Z,8.74
2024-02-03T03:21:41.410Z,8.70
2024-02-03T03:22:41.251Z,8.77
2024-02-03T03:23:41.349Z,8.70
2024-02-03T03:24:41.274Z,8.68
2024-02-03T03:25:41.212Z,8.74
2024-02-03T03:26:41.252Z,8.76
2024-02-03T03:27:41.305Z,8.71
2024-02-03T03:28:41.196Z,8.76
2024-02-03T03:29:41.177Z,8.80
2024-02-03T03:30:41.245Z,8.81
2024-02-03T03:31:41.187Z,8.73
2024-02-03T03:32:41.224Z,8.81
2024-02-03T03:33:41.437Z,8.80
2024-02-03T03:34:41.207Z,8.80
2024-02-03T03:35:41.103Z,8.74
2024-02-03T03:36:41.172Z,8.84
2024-02-03T03:37:41.132Z,8.83
2024-02-03T03:38:41.101Z,8.79
2024-02-03T03:39:41.123Z,8.87
2024-02-03T03:40:41.190Z,8.80
2024-02-03T03:41:41.088Z,8.77
2024-02-03T03:42:41.112Z,8.76
2024-02-03T03:43:41.020Z,8.73
2024-02-03T03:44:41.021Z,8.70
2024-02-03T03:45:41.039Z,8.68
2024-02-03T03:46:40.996Z,8.71
2024-02-03T03:47:41.039Z,8.71
2024-02-03T03:48:41.023Z,8.70
2024-02-03T03:49:41.114Z,8.76
2024-02-03T03:50:40.970Z,8.68
2024-02-03T03:51:40.980Z,8.71
2024-02-03T03:52:40.958Z,8.71
2024-02-03T03:53:40.910Z,8.73
2024-02-03T03:54:40.949Z,8.74
2024-02-03T03:55:40.900Z,8.77
2024-02-03T03:56:40.950Z,8.74
2024-02-03T03:57:40.937Z,8.74
2024-02-03T03:58:40.866Z,8.74
2024-02-03T03:59:40.859Z,8.71
2024-02-03T04:00:40.948Z,8.76
2024-02-03T04:01:40.890Z,8.71
2024-02-03T04:02:40.860Z,8.70
2024-02-03T04:03:40.874Z,8.80
2024-02-03T04:04:40.839Z,8.70
2024-02-03T04:05:40.822Z,8.68
2024-02-03T04:06:40.860Z,8.63
2024-02-03T04:07:40.780Z,8.66
2024-02-03T04:08:40.766Z,8.62
2024-02-03T04:09:40.811Z,8.61
2024-02-03T04:10:40.747Z,8.66
2024-02-03T04:11:40.791Z,8.63
2024-02-03T04:12:40.804Z,8.61
2024-02-03T04:13:40.704Z,8.55
2024-02-03T04:14:40.683Z,8.74
2024-02-03T04:15:40.694Z,8.62
2024-02-03T04:16:40.652Z,8.62
2024-02-03T04:17:40.705Z,8.71
2024-02-03T04:18:40.716Z,8.70
2024-02-03T04:19:40.752Z,8.63
2024-02-03T04:20:40.619Z,8.76
2024-02-03T04:21:40.628Z,8.74
2024-02-03T04:22:40.618Z,8.73
2024-02-03T04:23:40.637Z,8.73
2024-02-03T04:24:40.731Z,8.73
2024-02-03T04:25:40.581Z,8.80
2024-02-03T04:26:40.550Z,8.70
2024-02-03T04:27:40.584Z,8.73
2024-02-03T04:28:40.540Z,8.74
2024-02-03T04:29:40.544Z,8.68
2024-02-03T04:30:40.570Z,8.79
2024-02-03T04:31:40.568Z,8.71
2024-02-03T04:32:40.513Z,8.77
2024-02-03T04:33:40.528Z,8.68
2024-02-03T04:34:40.539Z,8.77
2024-02-03T04:35:40.480Z,8.73
2024-02-03T04:36:40.547Z,8.71
2024-02-03T04:37:40.552Z,8.77
2024-02-03T04:38:40.423Z,8.76
2024-02-03T04:39:40.434Z,8.76
2024-02-03T04:40:40.422Z,8.80
2024-02-03T04:41:40.409Z,8.83
2024-02-03T04:42:40.443Z,8.77
2024-02-03T04:43:40.381Z,8.80
2024-02-03T04:44:40.366Z,8.86
2024-02-03T04:45:40.351Z,8.81
2024-02-03T04:46:40.392Z,8.84
2024-02-03T04:47:40.432Z,8.84
2024-02-03T04:48:40.413Z,8.89
2024-02-03T04:49:40.404Z,8.80
2024-02-03T04:50:40.321Z,8.83
2024-02-03T04:51:40.374Z,8.95
2024-02-03T04:52:40.264Z,8.86
2024-02-03T04:53:40.281Z,8.86
2024-02-03T04:54:40.269Z,8.95
2024-02-03T04:55:40.249Z,8.80
2024-02-03T04:56:40.288Z,8.76
2024-02-03T04:57:40.258Z,8.79
2024-02-03T04:58:40.213Z,8.76
2024-02-03T04:59:40.253Z,8.83
2024-02-03T05:00:40.243Z,8.89
2024-02-03T05:01:40.424Z,8.79
2024-02-03T05:02:40.168Z,8.80
2024-02-03T05:03:40.286Z,8.83
2024-02-03T05:04:40.309Z,8.80
2024-02-03T05:05:40.147Z,8.89
2024-02-03T05:06:40.349Z,8.83
2024-02-03T05:07:40.158Z,8.80
2024-02-03T05:08:40.101Z,8.81
2024-02-03T05:09:40.156Z,8.80
2024-02-03T05:10:40.166Z,8.83
2024-02-03T05:11:40.066Z,8.86
2024-02-03T05:12:40.128Z,8.76
2024-02-03T05:13:40.048Z,8.81
2024-02-03T05:14:40.027Z,8.79
2024-02-03T05:15:40.054Z,8.84
2024-02-03T05:16:39.998Z,8.74
2024-02-03T05:17:40.086Z,8.84
2024-02-03T05:18:40.117Z,8.81
2024-02-03T05:19:39.997Z,8.81
2024-02-03T05:20:39.972Z,8.81
2024-02-03T05:21:39.956Z,8.79
2024-02-03T05:22:39.951Z,8.92
2024-02-03T05:23:39.977Z,8.89
2024-02-03T05:24:39.978Z,8.81
2024-02-03T05:25:39.907Z,8.81
2024-02-03T05:26:39.902Z,8.92
2024-02-03T05:27:39.940Z,8.89
2024-02-03T05:28:39.880Z,8.89
2024-02-03T05:29:39.882Z,8.86
2024-02-03T05:30:39.885Z,8.84
2024-02-03T05:31:39.855Z,8.87
2024-02-03T05:32:39.866Z,8.84
2024-02-03T05:33:39.894Z,8.77
2024-02-03T05:34:40.036Z,8.89
2024-02-03T05:35:39.798Z,8.84
2024-02-03T05:36:39.927Z,8.83
2024-02-03T05:37:39.763Z,8.94
2024-02-03T05:38:39.776Z,8.86
2024-02-03T05:39:39.885Z,8.87
2024-02-03T05:40:39.743Z,8.81
2024-02-03T05:41:39.741Z,8.80
2024-02-03T05:42:39.775Z,8.84
2024-02-03T05:43:39.696Z,8.94
2024-02-03T05:44:39.714Z,8.92
2024-02-03T05:45:39.728Z,8.81
2024-02-03T05:46:39.674Z,8.84
2024-02-03T05:47:39.692Z,8.92
2024-02-03T05:48:39.746Z,8.91
2024-02-03T05:49:39.699Z,8.92
2024-02-03T05:50:39.659Z,8.95
2024-02-03T05:51:39.641Z,8.89
2024-02-03T05:52:39.614Z,8.91
2024-02-03T05:53:39.613Z,8.92
2024-02-03T05:54:39.623Z,8.95
2024-02-03T05:55:39.599Z,8.95
2024-02-03T05:56:39.562Z,8.95
2024-02-03T05:57:39.584Z,9.02
2024-02-03T05:58:39.546Z,8.95
2024-02-03T05:59:46.038Z,8.99
2024-02-03T06:00:39.583Z,9.02
2024-02-03T06:01:39.629Z,9.04
2024-02-03T06:02:39.518Z,9.10
2024-02-03T06:03:39.762Z,9.13
2024-02-03T06:04:39.529Z,9.13
2024-02-03T06:05:53.072Z,9.14
2024-02-03T06:06:40.601Z,9.18
2024-02-03T06:07:39.515Z,9.13
2024-02-03T06:08:39.442Z,9.14
2024-02-03T06:09:39.493Z,9.15
2024-02-03T06:10:39.430Z,9.15
2024-02-03T06:11:39.443Z,9.15
2024-02-03T06:12:39.457Z,9.26
2024-02-03T06:13:39.393Z,9.14
2024-02-03T06:14:39.399Z,9.23
2024-02-03T06:15:39.464Z,9.17
2024-02-03T06:16:39.357Z,9.18
2024-02-03T06:17:39.367Z,9.15
2024-02-03T06:18:39.480Z,9.21
2024-02-03T06:19:43.433Z,9.13
2024-02-03T06:20:39.320Z,9.23
2024-02-03T06:21:39.323Z,9.20
2024-02-03T06:22:39.320Z,9.32
2024-02-03T06:23:39.272Z,9.29
2024-02-03T06:24:39.329Z,9.20
2024-02-03T06:25:41.635Z,9.24
2024-02-03T06:26:39.247Z,9.28
2024-02-03T06:27:39.307Z,9.28
2024-02-03T06:28:39.217Z,9.33
2024-02-03T06:29:39.216Z,9.31
2024-02-03T06:30:39.291Z,9.29
2024-02-03T06:31:39.205Z,9.21
2024-02-03T06:32:39.246Z,9.28
2024-02-03T06:33:39.282Z,9.23
2024-02-03T06:34:39.283Z,9.26
2024-02-03T06:35:41.181Z,9.32
2024-02-03T06:36:39.226Z,9.35
2024-02-03T06:37:39.129Z,9.33
2024-02-03T06:38:39.147Z,9.26
2024-02-03T06:39:39.200Z,9.29
2024-02-03T06:40:39.101Z,9.18
2024-02-03T06:41:39.127Z,9.31
2024-02-03T06:42:39.091Z,9.31
2024-02-03T06:43:39.076Z,9.29
2024-02-03T06:44:39.047Z,9.17
2024-02-03T06:45:39.072Z,9.18
2024-02-03T06:46:39.031Z,9.31
2024-02-03T06:47:39.074Z,9.32
2024-02-03T06:48:39.109Z,9.31
2024-02-03T06:49:39.131Z,9.32
2024-02-03T06:50:38.999Z,9.33
2024-02-03T06:51:38.991Z,9.26
2024-02-03T06:52:38.986Z,9.28
2024-02-03T06:53:38.950Z,9.36
2024-02-03T06:54:38.975Z,9.39
2024-02-03T06:55:38.926Z,9.39
2024-02-03T06:56:38.926Z,9.36
2024-02-03T06:57:38.993Z,9.39
2024-02-03T06:58:38.918Z,9.29
2024-02-03T06:59:38.908Z,9.42
2024-02-03T07:00:39.020Z,9.35
2024-02-03T07:01:38.978Z,9.36
2024-02-03T07:02:38.954Z,9.36
2024-02-03T07:03:38.890Z,9.38
2024-02-03T07:04:38.920Z,9.40
2024-02-03T07:05:38.823Z,9.35
2024-02-03T07:06:38.865Z,9.42
2024-02-03T07:07:38.864Z,9.42
2024-02-03T07:08:38.800Z,9.40
2024-02-03T07:09:38.823Z,9.40
2024-02-03T07:10:38.801Z,9.39
2024-02-03T07:11:41.004Z,9.46
2024-02-03T07:12:38.747Z,9.40
2024-02-03T07:13:38.754Z,9.47
2024-02-03T07:14:38.726Z,9.53
2024-02-03T07:15:38.792Z,9.40
2024-02-03T07:16:38.722Z,9.47
2024-02-03T07:17:38.714Z,9.38
2024-02-03T07:18:38.918Z,9.40
2024-02-03T07:19:38.978Z,9.36
2024-02-03T07:20:38.665Z,9.48
2024-02-03T07:21:38.755Z,9.39
2024-02-03T07:22:38.657Z,9.53
2024-02-03T07:23:38.620Z,9.53
2024-02-03T07:24:38.773Z,9.43
2024-02-03T07:25:38.604Z,9.39
2024-02-03T07:26:38.655Z,9.39
2024-02-03T07:27:38.754Z,9.46
2024-02-03T07:28:38.694Z,9.42
2024-02-03T07:29:38.684Z,9.48
2024-02-03T07:30:38.712Z,9.57
2024-02-03T07:31:38.573Z,9.50
2024-02-03T07:32:38.730Z,9.39
2024-02-03T07:33:38.741Z,9.35
2024-02-03T07:34:38.689Z,9.48
2024-02-03T07:35:38.593Z,9.51
2024-02-03T07:36:38.591Z,9.39
2024-02-03T07:37:38.523Z,9.38
2024-02-03T07:38:38.482Z,9.47
2024-02-03T07:39:38.600Z,9.42
2024-02-03T07:40:38.472Z,9.46
2024-02-03T07:41:38.447Z,9.46
2024-02-03T07:42:38.529Z,9.36
2024-02-03T07:43:38.453Z,9.43
2024-02-03T07:44:38.432Z,9.40
2024-02-03T07:45:38.500Z,9.42
2024-02-03T07:46:38.374Z,9.54
2024-02-03T07:47:38.445Z,9.46
2024-02-03T07:48:38.479Z,9.47
2024-02-03T07:49:38.444Z,9.47
2024-02-03T07:50:38.338Z,9.56
2024-02-03T07:51:38.459Z,9.51
2024-02-03T07:52:38.306Z,9.58
2024-02-03T07:53:38.321Z,9.47
2024-02-03T07:54:38.345Z,9.54
2024-02-03T07:55:38.276Z,9.57
2024-02-03T07:56:38.273Z,9.58
2024-02-03T07:57:38.328Z,9.64
2024-02-03T07:58:38.297Z,9.54
2024-02-03T07:59:38.306Z,9.50
2024-02-03T08:00:38.354Z,9.56
2024-02-03T08:01:38.244Z,9.65
2024-02-03T08:02:38.205Z,9.61
2024-02-03T08:03:38.341Z,9.56
2024-02-03T08:04:38.229Z,9.56
2024-02-03T08:05:38.188Z,9.60
2024-02-03T08:06:38.191Z,9.66
2024-02-03T08:07:38.155Z,9.60
2024-02-03T08:08:38.137Z,9.71
2024-02-03T08:09:38.183Z,9.74
2024-02-03T08:10:38.176Z,9.61
2024-02-03T08:11:38.110Z,9.74
2024-02-03T08:12:38.111Z,9.69
2024-02-03T08:13:38.087Z,9.69
2024-02-03T08:14:38.082Z,9.71
2024-02-03T08:15:38.113Z,9.72
2024-02-03T08:16:38.130Z,9.74
2024-02-03T08:17:38.060Z,9.71
2024-02-03T08:18:38.071Z,9.87
2024-02-03T08:19:38.182Z,9.68
2024-02-03T08:20:38.023Z,9.68
2024-02-03T08:21:38.044Z,9.72
2024-02-03T08:22:38.010Z,9.74
2024-02-03T08:23:37.982Z,9.79
2024-02-03T08:24:38.078Z,9.78
2024-02-03T08:25:37.952Z,9.90
2024-02-03T08:26:40.356Z,9.86
2024-02-03T08:27:38.035Z,9.87
2024-02-03T08:28:37.916Z,9.83
2024-02-03T08:29:37.913Z,9.91
2024-02-03T08:30:37.999Z,9.90
2024-02-03T08:31:38.120Z,9.89
2024-02-03T08:32:37.986Z,9.84
2024-02-03T08:33:38.069Z,9.91
2024-02-03T08:34:38.045Z,9.81
2024-02-03T08:35:37.986Z,9.84
2024-02-03T08:36:37.936Z,9.96
2024-02-03T08:37:37.852Z,9.93
2024-02-03T08:38:37.802Z,10.02
2024-02-03T08:40:37.821Z,9.94
2024-02-03T08:41:37.787Z,10.02
2024-02-03T08:42:37.819Z,9.96
2024-02-03T08:43:37.777Z,10.05
2024-02-03T08:44:37.744Z,10.01
2024-02-03T08:45:37.754Z,9.99
2024-02-03T08:46:37.717Z,9.96
2024-02-03T08:47:37.766Z,9.97
2024-02-03T08:48:37.889Z,9.99
2024-02-03T08:49:37.821Z,10.01
2024-02-03T08:50:37.674Z,10.05
2024-02-03T08:51:40.056Z,9.94
2024-02-03T08:52:37.659Z,10.01
2024-02-03T08:53:37.668Z,10.04
2024-02-03T08:54:37.763Z,10.01
2024-02-03T08:55:37.660Z,9.96
2024-02-03T08:56:37.707Z,10.01
2024-02-03T08:57:37.673Z,10.01
2024-02-03T08:58:37.700Z,10.05
2024-02-03T08:59:37.704Z,10.01
2024-02-03T09:00:37.711Z,10.02
2024-02-03T09:01:37.655Z,10.01
2024-02-03T09:02:37.674Z,10.05
2024-02-03T09:03:37.641Z,10.17
2024-02-03T09:04:37.725Z,9.97
2024-02-03T09:05:37.608Z,10.08
2024-02-03T09:06:37.527Z,10.09
2024-02-03T09:07:37.573Z,10.09
2024-02-03T09:08:37.475Z,10.18
2024-02-03T09:09:37.507Z,10.22
2024-02-03T09:10:37.486Z,10.23
2024-02-03T09:11:37.462Z,10.32
2024-02-03T09:12:37.481Z,10.33
2024-02-03T09:13:37.526Z,10.36
2024-02-03T09:14:37.434Z,10.33
2024-02-03T09:15:37.447Z,10.42
2024-02-03T09:16:37.391Z,10.55
2024-02-03T09:17:37.458Z,10.56
2024-02-03T09:18:37.470Z,10.52
2024-02-03T09:19:37.597Z,10.59
2024-02-03T09:20:37.371Z,10.61
2024-02-03T09:21:37.360Z,10.60
2024-02-03T09:22:37.320Z,10.63
2024-02-03T09:23:37.384Z,10.60
2024-02-03T09:24:37.346Z,10.67
2024-02-03T09:25:37.958Z,10.61
2024-02-03T09:26:37.281Z,10.61
2024-02-03T09:27:37.322Z,10.64
2024-02-03T09:28:37.269Z,10.67
2024-02-03T09:29:37.286Z,10.66
2024-02-03T09:30:37.276Z,10.61
2024-02-03T09:31:37.222Z,10.66
2024-02-03T09:32:37.328Z,10.68
2024-02-03T09:33:37.341Z,10.64
2024-02-03T09:34:37.236Z,10.66
2024-02-03T09:35:37.209Z,10.70
2024-02-03T09:37:51.007Z,10.63
2024-02-03T09:38:37.144Z,10.68
2024-02-03T09:39:37.206Z,10.63
2024-02-03T09:40:37.139Z,10.73
2024-02-03T09:41:37.170Z,10.73
2024-02-03T09:42:37.133Z,10.74
2024-02-03T09:43:37.104Z,10.79
2024-02-03T09:44:37.092Z,10.73
2024-02-03T09:45:37.235Z,10.84
2024-02-03T09:46:37.058Z,10.74
2024-02-03T09:47:37.088Z,10.89
2024-02-03T09:48:37.185Z,10.84
2024-02-03T09:49:37.109Z,10.88
2024-02-03T09:50:37.008Z,10.89
2024-02-03T09:51:37.019Z,10.94
2024-02-03T09:52:36.990Z,10.89
2024-02-03T09:53:37.016Z,10.91
2024-02-03T09:54:37.002Z,10.91
2024-02-03T09:55:36.992Z,10.91
2024-02-03T09:56:36.965Z,10.91
2024-02-03T09:57:36.965Z,11.06
2024-02-03T09:58:37.231Z,11.02
2024-02-03T09:59:36.930Z,10.99
2024-02-03T10:00:37.029Z,11.00
2024-02-03T10:01:36.932Z,11.03
2024-02-03T10:02:36.901Z,10.97
2024-02-03T10:03:36.895Z,11.04
2024-02-03T10:04:36.897Z,11.07
2024-02-03T10:05:36.960Z,11.04
2024-02-03T10:06:36.927Z,11.11
2024-02-03T10:07:36.866Z,11.15
2024-02-03T10:08:36.822Z,11.11
2024-02-03T10:11:36.915Z,11.25
2024-02-03T10:12:36.804Z,11.29
2024-02-03T10:13:36.776Z,11.24
2024-02-03T10:14:36.772Z,11.36
2024-02-03T10:15:36.804Z,11.28
2024-02-03T10:16:36.732Z,11.22
2024-02-03T10:17:36.965Z,11.27
2024-02-03T10:18:36.981Z,11.32
2024-02-03T10:19:37.007Z,11.28
2024-02-03T10:20:36.701Z,11.22
2024-02-03T10:21:36.764Z,11.29
2024-02-03T10:22:36.756Z,11.36
2024-02-03T10:23:36.666Z,11.32
2024-02-03T10:24:36.753Z,11.32
2024-02-03T10:25:36.675Z,11.40
2024-02-03T10:26:36.621Z,11.29
2024-02-03T10:27:36.714Z,11.36
2024-02-03T10:28:36.641Z,11.25
2024-02-03T10:29:36.672Z,11.36
2024-02-03T10:30:36.604Z,11.37
2024-02-03T10:31:38.053Z,11.33
2024-02-03T10:32:36.649Z,11.32
2024-02-03T10:33:36.809Z,11.28
2024-02-03T10:34:37.465Z,11.37
2024-02-03T10:35:36.541Z,11.37
2024-02-03T10:36:36.529Z,11.35
2024-02-03T10:37:36.704Z,11.42
2024-02-03T10:38:36.496Z,11.42
2024-02-03T10:39:37.342Z,11.44
2024-02-03T10:40:36.505Z,11.40
2024-02-03T10:41:36.514Z,11.42
2024-02-03T10:42:36.490Z,11.42
2024-02-03T10:43:36.461Z,11.46
2024-02-03T10:44:36.489Z,11.42
2024-02-03T10:45:36.432Z,11.46
2024-02-03T10:46:36.438Z,11.44
2024-02-03T10:47:36.427Z,11.43
2024-02-03T10:48:36.595Z,11.47
2024-02-03T10:49:36.506Z,11.57
2024-02-03T10:50:36.362Z,11.54
2024-02-03T10:51:36.377Z,11.51
2024-02-03T10:52:36.411Z,11.57
2024-02-03T10:53:36.345Z,11.47
2024-02-03T10:54:36.354Z,11.58
2024-02-03T10:55:36.353Z,11.55
2024-02-03T10:56:36.312Z,11.61
2024-02-03T10:57:36.375Z,11.51
2024-02-03T10:58:36.271Z,11.67
2024-02-03T10:59:36.380Z,11.60
2024-02-03T11:00:36.326Z,11.64
2024-02-03T11:01:36.293Z,11.65
2024-02-03T11:02:36.285Z,11.61
2024-02-03T11:03:36.299Z,11.67
2024-02-03T11:04:36.294Z,11.69
2024-02-03T11:05:36.328Z,11.70
2024-02-03T11:06:36.329Z,11.61
2024-02-03T11:07:36.172Z,11.78
2024-02-03T11:08:36.179Z,11.75
2024-02-03T11:09:36.211Z,11.73
2024-02-03T11:10:36.170Z,11.75
2024-02-03T11:11:36.128Z,11.67
2024-02-03T11:12:36.882Z,11.76
2024-02-03T11:13:36.122Z,11.82
2024-02-03T11:14:36.124Z,11.88
2024-02-03T11:15:36.266Z,11.82
2024-02-03T11:16:36.073Z,11.78
2024-02-03T11:17:36.094Z,11.83
2024-02-03T11:18:36.152Z,11.82
2024-02-03T11:19:36.115Z,11.88
2024-02-03T11:20:36.028Z,11.85
2024-02-03T11:21:36.038Z,11.83
2024-02-03T11:22:36.021Z,11.90
2024-02-03T11:23:36.060Z,11.90
2024-02-03T11:24:36.297Z,11.85
2024-02-03T11:25:35.981Z,11.98
2024-02-03T11:26:35.972Z,12.02
2024-02-03T11:27:36.000Z,12.01
2024-02-03T11:28:35.944Z,11.99
2024-02-03T11:29:35.963Z,12.01
2024-02-03T11:30:36.035Z,11.94
2024-02-03T11:31:35.936Z,12.09
2024-02-03T11:32:35.997Z,12.05
2024-02-03T11:33:36.129Z,12.01
2024-02-03T11:34:35.972Z,11.96
2024-02-03T11:35:36.092Z,12.04
2024-02-03T11:36:35.902Z,12.09
2024-02-03T11:37:35.856Z,12.10
2024-02-03T11:38:35.887Z,12.12
2024-02-03T11:39:35.959Z,12.10
2024-02-03T11:40:35.815Z,12.04
2024-02-03T11:41:35.800Z,11.98
2024-02-03T11:42:35.844Z,12.09
2024-02-03T11:43:35.861Z,12.16
2024-02-03T11:44:35.781Z,12.05
2024-02-03T11:45:35.816Z,12.13
2024-02-03T11:46:35.831Z,12.14
2024-02-03T11:47:35.772Z,12.16
2024-02-03T11:48:35.852Z,12.13
2024-02-03T11:49:35.974Z,12.05
2024-02-03T11:50:35.741Z,12.09
2024-02-03T11:51:35.751Z,12.16
2024-02-03T11:52:35.690Z,12.20
2024-02-03T11:53:35.671Z,12.19
2024-02-03T11:54:35.733Z,12.28
2024-02-03T11:55:35.657Z,12.24
2024-02-03T11:56:35.690Z,12.19
2024-02-03T11:57:35.678Z,12.28
2024-02-03T11:58:35.618Z,12.24
2024-02-03T11:59:35.599Z,12.23
2024-02-03T12:00:35.616Z,12.19
2024-02-03T12:01:35.587Z,12.19
2024-02-03T12:02:35.609Z,12.27
2024-02-03T12:03:35.661Z,12.31
2024-02-03T12:04:35.630Z,12.29
2024-02-03T12:05:35.550Z,12.31
2024-02-03T12:06:35.554Z,12.24
2024-02-03T12:07:35.590Z,12.27
2024-02-03T12:08:37.109Z,12.28
2024-02-03T12:09:35.533Z,12.37
2024-02-03T12:10:35.505Z,12.53
2024-02-03T12:11:35.454Z,12.41
2024-02-03T12:12:35.551Z,12.34
2024-02-03T12:13:35.442Z,12.45
2024-02-03T12:14:35.445Z,12.38
2024-02-03T12:15:35.523Z,12.47
2024-02-03T12:16:35.432Z,12.45
2024-02-03T12:17:35.439Z,12.50
2024-02-03T12:18:35.534Z,12.49
2024-02-03T12:19:35.549Z,12.50
2024-02-03T12:20:35.413Z,12.41
2024-02-03T12:21:35.372Z,12.45
2024-02-03T12:22:35.347Z,12.49
2024-02-03T12:23:35.370Z,12.41
2024-02-03T12:24:35.398Z,12.47
2024-02-03T12:25:35.343Z,12.46
2024-02-03T12:26:35.308Z,12.45
2024-02-03T12:27:35.407Z,12.53
2024-02-03T12:28:35.422Z,12.53
2024-02-03T12:29:35.290Z,12.59
2024-02-03T12:30:35.301Z,12.57
2024-02-03T12:31:35.241Z,12.54
2024-02-03T12:32:35.316Z,12.57
2024-02-03T12:33:35.327Z,12.54
2024-02-03T12:34:35.357Z,12.56
2024-02-03T12:35:35.248Z,12.57
2024-02-03T12:36:35.238Z,12.54
2024-02-03T12:37:35.219Z,12.54
2024-02-03T12:38:35.285Z,12.54
2024-02-03T12:39:35.222Z,12.50
2024-02-03T12:40:35.272Z,12.50
2024-02-03T12:41:35.134Z,12.50
2024-02-03T12:42:35.291Z,12.41
2024-02-03T12:43:35.118Z,12.39
2024-02-03T12:44:35.136Z,12.54
2024-02-03T12:45:36.896Z,12.39
2024-02-03T12:46:35.089Z,12.41
2024-02-03T12:47:35.147Z,12.47
2024-02-03T12:48:35.225Z,12.41
2024-02-03T12:49:35.238Z,12.41
2024-02-03T12:50:35.066Z,12.38
2024-02-03T12:51:35.136Z,12.41
2024-02-03T12:52:35.021Z,12.47
2024-02-03T12:53:35.035Z,12.52
2024-02-03T12:54:35.024Z,12.54
2024-02-03T12:55:36.563Z,12.64
2024-02-03T12:56:34.991Z,12.60
2024-02-03T12:57:35.005Z,12.65
2024-02-03T12:58:34.963Z,12.56
2024-02-03T12:59:34.993Z,12.54
2024-02-03T13:00:35.049Z,12.47
2024-02-03T13:01:34.984Z,12.56
2024-02-03T13:02:34.953Z,12.54
2024-02-03T13:03:35.019Z,12.68
2024-02-03T13:04:34.891Z,12.57
2024-02-03T13:05:34.913Z,12.64
2024-02-03T13:06:34.913Z,12.71
2024-02-03T13:07:34.970Z,12.68
2024-02-03T13:08:34.872Z,12.70
2024-02-03T13:09:34.858Z,12.71
2024-02-03T13:10:34.907Z,12.74
2024-02-03T13:11:34.836Z,12.82
2024-02-03T13:12:34.857Z,12.79
2024-02-03T13:13:34.804Z,12.83